createdAt,value
2019-02-26T00:01:18.762Z,8.50
2019-02-26T00:03:47.744Z,8.40
2019-02-26T00:06:18.563Z,8.40
2019-02-26T00:08:51.245Z,8.40
2019-02-26T00:11:19.435Z,8.40
2019-02-26T00:13:50.738Z,8.30
2019-02-26T00:16:20.557Z,8.30
2019-02-26T00:18:50.086Z,8.20
2019-02-26T00:21:20.452Z,8.20
2019-02-26T00:23:51.456Z,8.20
2019-02-26T00:26:22.439Z,8.20
2019-02-26T00:28:51.901Z,8.10
2019-02-26T00:31:22.241Z,8.10
2019-02-26T00:33:52.422Z,8.10
2019-02-26T00:36:21.882Z,8.10
2019-02-26T00:38:51.336Z,8.10
2019-02-26T00:41:24.447Z,8.10
2019-02-26T00:43:53.518Z,8.20
2019-02-26T00:46:24.233Z,8.20
2019-02-26T00:48:56.178Z,8.20
2019-02-26T00:51:26.916Z,8.20
2019-02-26T00:53:57.534Z,8.10
2019-02-26T00:56:29.373Z,8.10
2019-02-26T00:58:58.663Z,8.10
2019-02-26T01:01:28.108Z,8.10
2019-02-26T01:03:57.462Z,8.10
2019-02-26T01:06:28.916Z,8.10
2019-02-26T01:08:59.078Z,8.10
2019-02-26T01:11:30.267Z,8.10
2019-02-26T01:13:59.789Z,8.10
2019-02-26T01:16:29.136Z,8.00
2019-02-26T01:18:58.549Z,8.00
2019-02-26T01:21:29.092Z,8.00
2019-02-26T01:24:01.607Z,8.00
2019-02-26T01:26:30.369Z,7.90
2019-02-26T01:29:00.982Z,7.90
2019-02-26T01:31:32.106Z,7.80
2019-02-26T01:34:01.662Z,7.80
2019-02-26T01:36:31.097Z,7.80
2019-02-26T01:39:00.466Z,7.80
2019-02-26T01:41:29.973Z,7.80
2019-02-26T01:43:59.433Z,7.70
2019-02-26T01:46:30.013Z,7.70
2019-02-26T01:49:02.097Z,7.70
2019-02-26T01:51:31.730Z,7.70
2019-02-26T01:54:01.131Z,7.70
2019-02-26T01:56:30.543Z,7.70
2019-02-26T01:59:02.356Z,7.70
2019-02-26T02:01:31.099Z,7.70
2019-02-26T02:04:00.442Z,7.70
2019-02-26T02:07:04.232Z,7.70
2019-02-26T02:09:34.485Z,7.70
2019-02-26T02:12:04.766Z,7.80
2019-02-26T02:14:35.407Z,7.70
2019-02-26T02:19:51.823Z,7.70
2019-02-26T02:22:21.543Z,7.70
2019-02-26T02:24:53.398Z,7.70
2019-02-26T02:27:26.850Z,7.60
2019-02-26T02:29:55.403Z,7.60
2019-02-26T02:32:26.637Z,7.50
2019-02-26T02:35:00.558Z,7.50
2019-02-26T02:37:30.042Z,7.40
2019-02-26T02:39:58.898Z,7.40
2019-02-26T02:42:28.309Z,7.30
2019-02-26T02:44:57.851Z,7.30
2019-02-26T02:47:30.646Z,7.20
2019-02-26T02:49:59.006Z,7.20
2019-02-26T02:52:30.420Z,7.20
2019-02-26T02:54:59.690Z,7.10
2019-02-26T02:57:30.138Z,7.10
2019-02-26T03:45:03.192Z,7.10
2019-02-26T03:47:31.651Z,6.90
2019-02-26T03:50:01.141Z,6.90
2019-02-26T03:52:32.118Z,6.90
2019-02-26T03:55:03.487Z,6.80
2019-02-26T03:57:33.349Z,6.80
2019-02-26T04:00:05.714Z,6.80
2019-02-26T04:02:33.922Z,6.90
2019-02-26T04:05:06.005Z,6.90
2019-02-26T04:07:36.106Z,6.90
2019-02-26T04:10:05.941Z,6.90
2019-02-26T04:12:39.196Z,6.90
2019-02-26T04:15:07.987Z,6.80
2019-02-26T04:17:39.490Z,6.80
2019-02-26T04:20:09.392Z,6.80
2019-02-26T04:22:40.183Z,6.80
2019-02-26T04:25:49.501Z,6.80
2019-02-26T04:28:21.740Z,6.80
2019-02-26T04:31:22.833Z,6.80
2019-02-26T04:34:48.463Z,6.80
2019-02-26T04:38:12.803Z,6.80
2019-02-26T04:41:13.387Z,6.80
2019-02-26T04:44:28.825Z,6.80
2019-02-26T04:47:12.984Z,6.80
2019-02-26T04:49:43.180Z,6.80
2019-02-26T04:52:14.386Z,6.80
2019-02-26T04:54:44.258Z,6.80
2019-02-26T04:57:13.935Z,6.70
2019-02-26T04:59:44.045Z,6.70
2019-02-26T05:02:16.309Z,6.70
2019-02-26T05:04:45.792Z,6.70
2019-02-26T05:07:19.290Z,6.70
2019-02-26T05:09:50.021Z,6.70
2019-02-26T05:12:18.813Z,6.70
2019-02-26T05:14:48.324Z,6.60
2019-02-26T05:17:21.851Z,6.60
2019-02-26T05:19:51.803Z,6.60
2019-02-26T05:22:25.571Z,6.60
2019-02-26T05:29:54.757Z,6.60
2019-02-26T05:32:43.552Z,6.40
2019-02-26T05:35:17.347Z,6.40
2019-02-26T05:37:46.650Z,6.30
2019-02-26T05:40:18.947Z,6.30
2019-02-26T05:42:47.260Z,6.30
2019-02-26T05:45:16.818Z,6.30
2019-02-26T05:47:48.873Z,6.30
2019-02-26T05:50:18.453Z,6.30
2019-02-26T05:52:50.273Z,6.30
2019-02-26T05:55:20.601Z,6.30
2019-02-26T05:57:50.422Z,6.30
2019-02-26T06:00:22.684Z,6.30
2019-02-26T06:02:51.171Z,6.30
2019-02-26T06:05:23.396Z,6.30
2019-02-26T06:07:52.299Z,6.20
2019-02-26T06:10:24.310Z,6.20
2019-02-26T06:12:53.003Z,6.20
2019-02-26T06:15:23.111Z,6.10
2019-02-26T06:17:55.833Z,6.10
2019-02-26T06:20:28.087Z,6.00
2019-02-26T06:22:56.347Z,6.00
2019-02-26T06:25:27.670Z,6.00
2019-02-26T06:28:02.237Z,6.00
2019-02-26T06:30:32.338Z,6.00
2019-02-26T06:33:04.309Z,6.00
2019-02-26T06:35:36.614Z,6.00
2019-02-26T06:38:09.326Z,6.00
2019-02-26T06:40:39.280Z,6.10
2019-02-26T06:43:09.483Z,6.10
2019-02-26T06:45:41.287Z,6.10
2019-02-26T06:48:14.670Z,6.10
2019-02-26T06:50:43.659Z,6.20
2019-02-26T06:53:16.670Z,6.20
2019-02-26T06:55:46.524Z,6.20
2019-02-26T06:58:24.226Z,6.20
2019-02-26T07:00:55.422Z,6.20
2019-02-26T07:03:26.285Z,6.20
2019-02-26T07:05:57.135Z,6.30
2019-02-26T07:08:28.563Z,6.30
2019-02-26T07:10:57.907Z,6.30
2019-02-26T07:13:29.176Z,6.30
2019-02-26T07:16:00.311Z,6.30
2019-02-26T07:18:29.888Z,6.40
2019-02-26T07:21:00.296Z,6.40
2019-02-26T07:23:32.608Z,6.40
2019-02-26T07:26:01.163Z,6.40
2019-02-26T07:28:30.725Z,6.50
2019-02-26T07:31:02.189Z,6.50
2019-02-26T07:33:34.150Z,6.50
2019-02-26T07:36:04.156Z,6.50
2019-02-26T07:38:40.873Z,6.70
2019-02-26T07:41:06.689Z,6.70
2019-02-26T07:43:38.799Z,6.80
2019-02-26T07:46:07.114Z,6.90
2019-02-26T07:48:38.719Z,6.90
2019-02-26T07:51:11.056Z,7.00
2019-02-26T07:53:44.402Z,7.00
2019-02-26T07:56:11.635Z,7.00
2019-02-26T07:58:43.121Z,7.10
2019-02-26T08:01:12.632Z,7.10
2019-02-26T08:03:46.455Z,7.20
2019-02-26T08:06:16.659Z,7.20
2019-02-26T08:08:48.450Z,7.30
2019-02-26T08:11:17.309Z,7.40
2019-02-26T08:13:46.676Z,7.50
2019-02-26T08:16:20.630Z,7.50
2019-02-26T08:18:52.189Z,7.60
2019-02-26T08:21:45.485Z,7.70
2019-02-26T08:24:17.131Z,7.80
2019-02-26T08:26:47.544Z,7.90
2019-02-26T08:29:17.772Z,8.00
2019-02-26T08:57:20.813Z,8.10
2019-02-26T08:59:52.061Z,9.00
2019-02-26T09:02:23.128Z,9.00
2019-02-26T09:04:52.666Z,9.10
2019-02-26T09:07:24.448Z,9.10
2019-02-26T09:09:57.464Z,9.10
2019-02-26T09:12:27.243Z,9.30
2019-02-26T09:14:58.900Z,9.30
2019-02-26T09:17:30.458Z,9.40
2019-02-26T09:20:06.975Z,9.40
2019-02-26T09:22:30.960Z,9.50
2019-02-26T09:25:02.183Z,9.60
2019-02-26T09:27:32.101Z,9.60
2019-02-26T09:30:03.480Z,9.60
2019-02-26T09:32:37.317Z,9.70
2019-02-26T09:35:06.944Z,9.70
2019-02-26T09:37:36.357Z,9.70
2019-02-26T09:40:06.507Z,9.70
2019-02-26T09:42:39.071Z,9.80
2019-02-26T09:45:10.755Z,9.70
2019-02-26T09:47:42.037Z,9.80
2019-02-26T09:50:15.360Z,9.80
2019-02-26T09:52:47.598Z,9.80
2019-02-26T09:55:17.790Z,9.80
2019-02-26T09:57:49.207Z,9.90
2019-02-26T10:00:40.492Z,9.90
2019-02-26T10:03:12.725Z,9.90
2019-02-26T10:05:41.626Z,10.00
2019-02-26T10:08:11.174Z,10.00
2019-02-26T10:10:40.655Z,10.00
2019-02-26T10:13:11.209Z,10.00
2019-02-26T10:15:42.778Z,10.10
2019-02-26T10:18:11.938Z,10.10
2019-02-26T10:20:43.326Z,10.20
2019-02-26T10:23:12.395Z,10.20
2019-02-26T10:25:42.896Z,10.20
2019-02-26T10:28:14.202Z,10.20
2019-02-26T10:30:44.632Z,10.20
2019-02-26T10:33:18.250Z,10.30
2019-02-26T10:35:49.735Z,10.30
2019-02-26T10:38:18.456Z,10.40
2019-02-26T10:40:53.788Z,10.50
2019-02-26T10:43:20.442Z,10.60
2019-02-26T10:45:50.536Z,10.60
2019-02-26T10:48:22.834Z,10.60
2019-02-26T10:50:53.320Z,10.60
2019-02-26T10:53:34.497Z,10.60
2019-02-26T10:56:05.137Z,10.70
2019-02-26T10:58:34.743Z,10.70
2019-02-26T11:01:05.380Z,10.70
2019-02-26T11:03:37.940Z,10.60
2019-02-26T11:06:07.391Z,10.70
2019-02-26T11:08:37.656Z,10.80
2019-02-26T11:11:08.201Z,10.80
2019-02-26T11:13:40.730Z,10.80
2019-02-26T11:16:10.774Z,10.80
2019-02-26T11:18:42.552Z,10.90
2019-02-26T11:21:11.330Z,11.00
2019-02-26T11:23:41.988Z,11.00
2019-02-26T11:26:13.154Z,11.10
2019-02-26T11:28:45.472Z,11.10
2019-02-26T11:31:33.944Z,11.20
2019-02-26T11:34:06.656Z,11.20
2019-02-26T11:36:36.506Z,11.20
2019-02-26T11:39:09.250Z,11.20
2019-02-26T11:41:39.378Z,11.30
2019-02-26T11:44:12.498Z,11.30
2019-02-26T11:46:39.924Z,11.30
2019-02-26T11:49:11.876Z,11.30
2019-02-26T11:51:42.458Z,11.40
2019-02-26T11:54:15.047Z,11.40
2019-02-26T11:56:47.161Z,11.40
2019-02-26T11:59:16.932Z,11.50
2019-02-26T12:01:47.830Z,11.60
2019-02-26T12:04:17.335Z,11.60
2019-02-26T12:06:46.713Z,11.60
2019-02-26T12:09:17.777Z,11.70
2019-02-26T12:11:49.531Z,11.80
2019-02-26T12:14:21.538Z,11.70
2019-02-26T12:16:50.200Z,11.80
2019-02-26T12:19:19.593Z,11.80
2019-02-26T12:21:49.508Z,11.80
2019-02-26T12:24:20.402Z,11.80
2019-02-26T12:26:50.472Z,11.70
2019-02-26T12:29:23.584Z,11.80
2019-02-26T12:31:55.548Z,11.70
2019-02-26T12:34:24.272Z,11.70
2019-02-26T12:36:57.169Z,11.60
2019-02-26T12:39:25.755Z,11.50
2019-02-26T12:41:56.090Z,11.40
2019-02-26T12:44:25.626Z,11.40
2019-02-26T12:46:56.836Z,11.40
2019-02-26T12:49:29.407Z,11.40
2019-02-26T12:51:59.836Z,11.40
2019-02-26T12:54:33.220Z,11.40
2019-02-26T12:57:04.275Z,11.40
2019-02-26T12:59:33.107Z,11.40
2019-02-26T13:02:04.727Z,11.50
2019-02-26T13:04:33.705Z,11.40
2019-02-26T13:07:05.413Z,11.40
2019-02-26T13:09:34.248Z,11.40
2019-02-26T13:12:05.920Z,11.30
2019-02-26T13:14:36.623Z,11.40
2019-02-26T13:17:06.067Z,11.40
2019-02-26T13:19:36.973Z,11.40
2019-02-26T13:22:08.892Z,11.30
2019-02-26T13:24:37.784Z,11.30
2019-02-26T13:27:08.368Z,11.40
2019-02-26T13:29:42.508Z,11.40
2019-02-26T13:32:13.107Z,11.40
2019-02-26T13:34:40.109Z,11.40
2019-02-26T13:37:09.790Z,11.50
2019-02-26T13:39:41.538Z,11.60
2019-02-26T13:42:13.966Z,11.60
2019-02-26T13:44:41.646Z,11.60
2019-02-26T13:47:11.111Z,11.70
2019-02-26T13:49:40.587Z,11.70
2019-02-26T13:52:10.168Z,11.80
2019-02-26T13:54:40.725Z,11.80
2019-02-26T13:57:11.759Z,11.80
2019-02-26T13:59:41.541Z,11.80
2019-02-26T14:02:11.187Z,11.80
2019-02-26T14:04:41.870Z,11.80
2019-02-26T14:07:13.541Z,11.80
2019-02-26T14:09:42.905Z,11.80
2019-02-26T14:12:12.585Z,11.80
2019-02-26T14:14:42.060Z,11.80
2019-02-26T14:17:11.535Z,11.80
2019-02-26T14:19:40.972Z,11.80
2019-02-26T14:22:10.509Z,11.80
2019-02-26T14:24:40.268Z,11.70
2019-02-26T14:27:10.117Z,11.70
2019-02-26T14:29:39.592Z,11.70
2019-02-26T14:32:10.128Z,11.70
2019-02-26T14:34:39.639Z,11.60
2019-02-26T14:37:10.307Z,11.60
2019-02-26T14:39:39.763Z,11.60
2019-02-26T14:42:10.863Z,11.60
2019-02-26T14:44:40.358Z,11.60
2019-02-26T14:47:09.936Z,11.60
2019-02-26T14:49:39.490Z,11.60
2019-02-26T14:52:10.111Z,11.60
2019-02-26T14:54:39.534Z,11.60
2019-02-26T14:57:09.009Z,11.60
2019-02-26T14:59:39.694Z,11.60
2019-02-26T15:02:09.663Z,11.60
2019-02-26T15:04:40.805Z,11.50
2019-02-26T15:07:10.301Z,11.50
2019-02-26T15:09:39.838Z,11.50
2019-02-26T15:12:11.159Z,11.40
2019-02-26T15:14:41.652Z,11.40
2019-02-26T15:17:12.341Z,11.30
2019-02-26T15:19:49.670Z,11.20
2019-02-26T15:22:14.931Z,11.20
2019-02-26T15:24:44.412Z,11.20
2019-02-26T15:27:13.915Z,11.10
2019-02-26T15:29:43.302Z,11.10
2019-02-26T15:32:12.743Z,11.10
2019-02-26T15:34:42.215Z,11.10
2019-02-26T15:37:30.867Z,11.00
2019-02-26T15:40:01.712Z,10.90
2019-02-26T15:42:31.182Z,10.90
2019-02-26T15:45:00.841Z,10.90
2019-02-26T15:47:32.578Z,10.80
2019-02-26T15:50:02.450Z,10.70
2019-02-26T15:52:31.985Z,10.70
2019-02-26T15:55:01.707Z,10.60
2019-02-26T15:57:31.745Z,10.60
2019-02-26T16:00:06.346Z,10.50
2019-02-26T16:02:36.757Z,10.50
2019-02-26T16:05:06.442Z,10.40
2019-02-26T16:07:38.186Z,10.40
2019-02-26T16:10:08.825Z,10.30
2019-02-26T16:12:39.681Z,10.30
2019-02-26T16:15:11.841Z,10.20
2019-02-26T16:17:41.288Z,10.20
2019-02-26T16:20:13.073Z,10.20
2019-02-26T16:22:42.786Z,10.20
2019-02-26T16:25:12.373Z,10.10
2019-02-26T16:27:42.016Z,10.10
2019-02-26T16:30:17.399Z,10.00
2019-02-26T16:32:48.918Z,10.00
2019-02-26T16:35:18.796Z,10.00
2019-02-26T16:37:50.180Z,10.00
2019-02-26T16:40:20.076Z,9.90
2019-02-26T16:42:50.854Z,9.90
2019-02-26T16:45:22.155Z,9.90
2019-02-26T16:47:52.678Z,9.80
2019-02-26T16:50:22.792Z,9.80
2019-02-26T16:52:52.321Z,9.70
2019-02-26T16:55:22.208Z,9.70
2019-02-26T16:57:51.652Z,9.70
2019-02-26T17:00:23.988Z,9.70
2019-02-26T17:02:53.387Z,9.60
2019-02-26T17:05:23.517Z,9.60
2019-02-26T17:07:53.246Z,9.60
2019-02-26T17:10:22.742Z,9.60
2019-02-26T17:12:55.063Z,9.60
2019-02-26T17:15:28.634Z,9.60
2019-02-26T17:17:58.130Z,9.50
2019-02-26T17:20:27.723Z,9.50
2019-02-26T17:22:57.222Z,9.50
2019-02-26T17:25:28.492Z,9.50
2019-02-26T17:28:00.072Z,9.50
2019-02-26T17:30:31.489Z,9.50
2019-02-26T17:33:00.925Z,9.40
2019-02-26T17:35:30.528Z,9.40
2019-02-26T17:38:00.126Z,9.30
2019-02-26T17:40:33.923Z,9.30
2019-02-26T17:43:03.970Z,9.30
2019-02-26T17:45:37.347Z,9.20
2019-02-26T17:48:06.216Z,9.20
2019-02-26T17:50:36.613Z,9.20
2019-02-26T17:53:06.335Z,9.20
2019-02-26T17:55:36.170Z,9.10
2019-02-26T17:58:09.792Z,9.00
2019-02-26T18:00:39.323Z,9.00
2019-02-26T18:03:10.038Z,9.00
2019-02-26T18:05:50.579Z,9.00
2019-02-26T18:08:11.645Z,8.90
2019-02-26T18:10:41.352Z,8.90
2019-02-26T18:13:10.930Z,8.90
2019-02-26T18:15:40.749Z,8.90
2019-02-26T18:18:11.542Z,8.90
2019-02-26T18:20:41.440Z,8.90
2019-02-26T18:23:11.990Z,8.90
2019-02-26T18:25:42.391Z,8.90
2019-02-26T18:28:12.180Z,8.90
2019-02-26T18:30:41.719Z,8.90
2019-02-26T18:33:11.477Z,8.90
2019-02-26T18:35:43.783Z,8.90
2019-02-26T18:38:13.624Z,8.90
2019-02-26T18:40:43.813Z,8.90
2019-02-26T18:43:14.987Z,8.90
2019-02-26T18:45:44.810Z,8.90
2019-02-26T18:48:15.701Z,8.90
2019-02-26T18:50:45.635Z,8.90
2019-02-26T18:53:16.690Z,8.90
2019-02-26T18:55:46.612Z,8.90
2019-02-26T18:58:17.056Z,8.90
2019-02-26T19:00:46.709Z,9.00
2019-02-26T19:03:16.798Z,9.00
2019-02-26T19:05:47.128Z,9.00
2019-02-26T19:08:18.934Z,9.00
2019-02-26T19:10:50.865Z,9.10
2019-02-26T19:13:21.113Z,9.10
2019-02-26T19:15:50.746Z,9.10
2019-02-26T19:18:20.833Z,9.10
2019-02-26T19:20:50.881Z,9.10
2019-02-26T19:23:21.119Z,9.20
2019-02-26T19:25:51.363Z,9.20
2019-02-26T19:28:21.027Z,9.20
2019-02-26T19:30:51.074Z,9.30
2019-02-26T19:33:21.689Z,9.30
2019-02-26T19:35:53.892Z,9.30
2019-02-26T19:38:27.274Z,9.40
2019-02-26T19:40:56.752Z,9.40
2019-02-26T19:43:28.834Z,9.40
2019-02-26T19:45:59.241Z,9.50
2019-02-26T19:48:33.883Z,9.50
2019-02-26T19:51:03.933Z,9.50
2019-02-26T19:53:35.180Z,9.50
2019-02-26T19:56:05.505Z,9.50
2019-02-26T19:58:35.801Z,9.50
2019-02-26T20:01:05.803Z,9.50
2019-02-26T20:03:39.852Z,9.50
2019-02-26T20:06:08.071Z,9.50
2019-02-26T20:08:38.474Z,9.50
2019-02-26T20:11:08.607Z,9.50
2019-02-26T20:13:42.057Z,9.40
2019-02-26T20:16:09.958Z,9.40
2019-02-26T20:18:40.084Z,9.40
2019-02-26T20:21:09.908Z,9.40
2019-02-26T20:23:41.863Z,9.40
2019-02-26T20:26:16.162Z,9.40
2019-02-26T20:28:43.280Z,9.40
2019-02-26T20:31:13.333Z,9.40
2019-02-26T20:33:43.425Z,9.50
2019-02-26T20:36:17.628Z,9.50
2019-02-26T20:38:45.074Z,9.50
2019-02-26T20:41:14.934Z,9.50
2019-02-26T20:43:44.671Z,9.50
2019-02-26T20:46:14.213Z,9.50
2019-02-26T20:48:44.092Z,9.50
2019-02-26T20:51:14.075Z,9.50
2019-02-26T20:53:43.747Z,9.50
2019-02-26T20:56:13.563Z,9.50
2019-02-26T20:58:44.922Z,9.60
2019-02-26T21:01:14.618Z,9.60
2019-02-26T21:03:46.914Z,9.60
2019-02-26T21:06:18.058Z,9.60
2019-02-26T21:08:49.711Z,9.60
2019-02-26T21:11:23.233Z,9.70
2019-02-26T21:13:52.855Z,9.70
2019-02-26T21:16:24.253Z,9.70
2019-02-26T21:18:55.910Z,9.70
2019-02-26T21:21:27.265Z,9.70
2019-02-26T21:24:00.466Z,9.70
2019-02-26T21:26:29.629Z,9.70
2019-02-26T21:28:59.618Z,9.70
2019-02-26T21:31:28.990Z,9.80
2019-02-26T21:33:58.534Z,9.80
2019-02-26T21:36:28.494Z,9.80
2019-02-26T21:38:57.965Z,9.80
2019-02-26T21:41:28.563Z,9.80
2019-02-26T21:43:58.054Z,9.90
2019-02-26T21:46:29.293Z,10.00
2019-02-26T21:48:58.750Z,10.10
2019-02-26T21:51:33.720Z,10.10
2019-02-26T21:54:00.920Z,10.20
2019-02-26T21:56:30.495Z,10.20
2019-02-26T21:59:02.239Z,10.20
2019-02-26T22:01:31.623Z,10.20
2019-02-26T22:04:03.794Z,10.20
2019-02-26T22:06:34.590Z,10.20
2019-02-26T22:09:04.405Z,10.20
2019-02-26T22:11:34.133Z,10.20
2019-02-26T22:14:03.604Z,10.20
2019-02-26T22:16:33.023Z,10.20
2019-02-26T22:19:04.722Z,10.20
2019-02-26T22:21:33.634Z,10.20
2019-02-26T22:24:04.631Z,10.20
2019-02-26T22:26:34.207Z,10.30
2019-02-26T22:29:04.962Z,10.30
2019-02-26T22:31:34.640Z,10.30
2019-02-26T22:34:04.116Z,10.30
2019-02-26T22:36:34.746Z,10.30
2019-02-26T22:39:05.566Z,10.30
2019-02-26T22:41:36.203Z,10.20
2019-02-26T22:44:07.078Z,10.20
2019-02-26T22:46:37.764Z,10.10
2019-02-26T22:49:08.453Z,10.20
2019-02-26T22:51:39.059Z,10.30
2019-02-26T22:54:10.434Z,10.30
2019-02-26T22:56:40.082Z,10.40
2019-02-26T22:59:12.818Z,10.50
2019-02-26T23:01:46.834Z,10.50
2019-02-26T23:04:35.512Z,10.50
2019-02-26T23:07:06.079Z,10.60
2019-02-26T23:09:37.488Z,10.60
2019-02-26T23:12:08.138Z,10.70
2019-02-26T23:14:39.299Z,10.70
2019-02-26T23:17:13.360Z,10.60
2019-02-26T23:19:42.775Z,10.60
2019-02-26T23:22:13.537Z,10.50
2019-02-26T23:24:44.477Z,10.50
2019-02-26T23:27:16.729Z,10.50
2019-02-26T23:29:46.183Z,10.40
2019-02-26T23:32:16.775Z,10.40
2019-02-26T23:35:03.396Z,10.40
2019-02-26T23:37:34.713Z,10.40
2019-02-26T23:40:27.411Z,10.30
2019-02-26T23:42:58.313Z,10.40
2019-02-26T23:45:27.791Z,10.40
2019-02-26T23:47:57.254Z,10.30
2019-02-26T23:50:27.793Z,10.30
2019-02-26T23:53:00.927Z,10.20
2019-02-26T23:55:32.183Z,10.20
2019-02-26T23:58:01.697Z,10.20
